Terminal Aerodrome Forecast
Issued by NWS

Home | Current Version | Previous Version | Text Only | Print | Product List | Glossary On
Versions: 1 2 3 4 5 6 7 8 9 10 11 12
000
FTUS46 KSTO 211100
TAFRBL
TAF
KRBL 211120Z 2112/2212 34004KT P6SM OVC250
     FM211700 16007KT P6SM OVC200
     FM212200 16014G22KT P6SM OVC120
     FM220700 17010KT P6SM -SHRA SCT030 OVC050=

USA.gov is the U.S. government's official web portal to all federal, state and local government web resources and services.